Time;durP1;ratioP1;P1;durP2;ratioP2;P2;SDS_P1;SDS_P2;PMS_P1;PMS_P2;Temp;Humidity;BMP_temperature;BMP_pressure;BME280_temperature;BME280_humidity;BME280_pressure;Samples;Min_cycle;Max_cycle;Signal;HPM_P1;HPM_P2
2021/09/24 00:00:12;;;;;;;5.78;5.28;;;;;;;;;;5094442;28;20024;-78
2021/09/24 00:02:38;;;;;;;6.05;5.47;;;;;;;;;;5095040;28;20377;-77
2021/09/24 00:05:04;;;;;;;8.23;5.15;;;;;;;;;;5094788;28;20032;-76
2021/09/24 00:07:30;;;;;;;6.32;5.72;;;;;;;;;;5094470;28;20024;-79
2021/09/24 00:09:56;;;;;;;7.18;5.72;;;;;;;;;;5094525;28;20529;-76
2021/09/24 00:12:22;;;;;;;5.97;5.38;;;;;;;;;;5094200;28;20374;-76
2021/09/24 00:14:48;;;;;;;5.35;4.85;;;;;;;;;;5094372;28;20450;-77
2021/09/24 00:17:14;;;;;;;5.40;4.40;;;;;;;;;;5094548;28;20355;-75
2021/09/24 00:19:40;;;;;;;6.32;5.07;;;;;;;;;;5094276;28;20024;-75
2021/09/24 00:22:06;;;;;;;6.00;5.40;;;;;;;;;;5094376;28;20063;-76
2021/09/24 00:24:32;;;;;;;5.50;4.97;;;;;;;;;;5093837;28;20040;-75
2021/09/24 00:26:58;;;;;;;5.95;5.35;;;;;;;;;;5094900;28;20020;-74
2021/09/24 00:29:24;;;;;;;6.15;4.55;;;;;;;;;;5094133;28;20027;-75
2021/09/24 00:31:50;;;;;;;7.03;4.57;;;;;;;;;;5094361;28;20025;-75
2021/09/24 00:34:17;;;;;;;5.53;4.22;;;;;;;;;;5097196;28;20059;-75
2021/09/24 00:36:43;;;;;;;5.65;5.03;;;;;;;;;;5098655;28;20031;-75
2021/09/24 00:39:09;;;;;;;5.00;4.57;;;;;;;;;;5097961;28;20382;-75
2021/09/24 00:41:35;;;;;;;5.00;4.47;;;;;;;;;;5098750;28;20381;-75
2021/09/24 00:44:02;;;;;;;5.57;4.75;;;;;;;;;;5098207;28;20060;-75
2021/09/24 00:46:28;;;;;;;7.72;4.70;;;;;;;;;;5098157;28;20028;-75
2021/09/24 00:48:54;;;;;;;6.55;4.88;;;;;;;;;;5098445;28;20056;-75
2021/09/24 00:51:20;;;;;;;5.10;4.60;;;;;;;;;;5098110;28;20073;-75
2021/09/24 00:53:46;;;;;;;7.13;4.78;;;;;;;;;;5097758;28;20031;-75
2021/09/24 00:56:12;;;;;;;4.97;4.22;;;;;;;;;;5098039;28;20032;-75
2021/09/24 00:58:38;;;;;;;6.45;4.88;;;;;;;;;;5098144;28;20079;-75
2021/09/24 01:01:04;;;;;;;5.35;4.85;;;;;;;;;;5097965;28;20016;-75
2021/09/24 01:03:31;;;;;;;4.93;4.43;;;;;;;;;;5097662;28;20028;-75
2021/09/24 01:05:57;;;;;;;4.95;4.55;;;;;;;;;;5098100;28;20458;-75
2021/09/24 01:08:23;;;;;;;7.10;4.57;;;;;;;;;;5097285;28;20374;-75
2021/09/24 01:10:49;;;;;;;5.57;5.07;;;;;;;;;;5098107;28;20366;-75
2021/09/24 01:13:15;;;;;;;4.75;4.32;;;;;;;;;;5098085;28;20056;-75
2021/09/24 01:15:42;;;;;;;5.57;4.78;;;;;;;;;;5097710;28;20431;-75
2021/09/24 01:18:08;;;;;;;4.88;4.43;;;;;;;;;;5097679;28;20035;-75
2021/09/24 01:20:34;;;;;;;4.70;4.30;;;;;;;;;;5097484;28;20077;-75
2021/09/24 01:23:00;;;;;;;5.05;4.57;;;;;;;;;;5097004;28;20020;-75
2021/09/24 01:25:26;;;;;;;5.20;4.03;;;;;;;;;;5097653;28;20492;-75
2021/09/24 01:27:52;;;;;;;5.10;4.60;;;;;;;;;;5097309;28;20024;-74
2021/09/24 01:30:18;;;;;;;4.07;3.70;;;;;;;;;;5097160;28;20468;-75
2021/09/24 01:32:45;;;;;;;5.47;4.97;;;;;;;;;;5097382;28;20028;-75
2021/09/24 01:35:11;;;;;;;5.93;5.15;;;;;;;;;;5097449;28;20028;-75
2021/09/24 01:37:37;;;;;;;4.75;4.35;;;;;;;;;;5097197;28;20097;-75
2021/09/24 01:40:04;;;;;;;3.97;3.63;;;;;;;;;;5097191;28;20110;-85
2021/09/24 01:42:30;;;;;;;6.63;4.13;;;;;;;;;;5097223;28;20035;-75
2021/09/24 01:44:56;;;;;;;4.32;3.90;;;;;;;;;;5096009;28;20035;-74
2021/09/24 01:47:22;;;;;;;4.35;3.95;;;;;;;;;;5097230;28;20492;-75
2021/09/24 01:49:48;;;;;;;6.70;4.40;;;;;;;;;;5097051;28;20063;-75
2021/09/24 01:52:14;;;;;;;3.85;3.55;;;;;;;;;;5096493;28;20474;-75
2021/09/24 01:54:40;;;;;;;6.50;4.57;;;;;;;;;;5097476;28;20024;-75
2021/09/24 01:57:06;;;;;;;4.63;4.22;;;;;;;;;;5096708;28;20050;-75
2021/09/24 01:59:32;;;;;;;5.25;4.50;;;;;;;;;;5097264;28;20032;-75
2021/09/24 02:01:58;;;;;;;5.18;4.65;;;;;;;;;;5096823;28;20028;-75
2021/09/24 02:04:24;;;;;;;4.10;3.58;;;;;;;;;;5096450;28;20043;-75
2021/09/24 02:06:50;;;;;;;6.15;4.35;;;;;;;;;;5096605;28;20103;-76
2021/09/24 02:09:16;;;;;;;4.97;4.47;;;;;;;;;;5096776;28;20021;-75
2021/09/24 02:11:42;;;;;;;6.00;4.57;;;;;;;;;;5096790;28;20020;-75
2021/09/24 02:14:08;;;;;;;6.07;3.92;;;;;;;;;;5096346;28;20058;-76
2021/09/24 02:16:35;;;;;;;5.88;4.50;;;;;;;;;;5096620;28;20108;-75
2021/09/24 02:19:01;;;;;;;4.70;4.30;;;;;;;;;;5096572;28;20483;-75
2021/09/24 02:21:27;;;;;;;4.43;4.07;;;;;;;;;;5096143;28;20020;-76
2021/09/24 02:23:53;;;;;;;5.68;4.55;;;;;;;;;;5096503;28;20032;-75
2021/09/24 02:26:19;;;;;;;4.55;3.85;;;;;;;;;;5096314;28;20047;-75
2021/09/24 02:28:45;;;;;;;6.07;4.50;;;;;;;;;;5096210;28;20047;-75
2021/09/24 02:31:12;;;;;;;6.13;5.10;;;;;;;;;;5096691;28;20028;-75
2021/09/24 02:33:38;;;;;;;4.82;4.32;;;;;;;;;;5096241;28;20030;-76
2021/09/24 02:36:04;;;;;;;4.38;4.07;;;;;;;;;;5095874;28;20420;-79
2021/09/24 02:38:30;;;;;;;4.60;4.15;;;;;;;;;;5096243;28;20028;-76
2021/09/24 02:40:57;;;;;;;6.85;5.15;;;;;;;;;;5096531;28;20021;-76
2021/09/24 02:43:23;;;;;;;7.38;5.20;;;;;;;;;;5096214;28;20039;-75
2021/09/24 02:45:49;;;;;;;4.85;4.35;;;;;;;;;;5096034;28;20024;-75
2021/09/24 02:48:15;;;;;;;5.95;5.07;;;;;;;;;;5095578;28;20084;-74
2021/09/24 02:50:41;;;;;;;6.00;5.15;;;;;;;;;;5095808;28;20016;-75
2021/09/24 02:53:07;;;;;;;6.45;5.10;;;;;;;;;;5095863;28;20020;-76
2021/09/24 02:55:33;;;;;;;5.03;4.45;;;;;;;;;;5095495;28;20077;-76
2021/09/24 02:57:59;;;;;;;6.35;5.13;;;;;;;;;;5095863;28;20052;-76
2021/09/24 03:00:26;;;;;;;6.35;5.20;;;;;;;;;;5095649;28;20020;-77
2021/09/24 03:02:52;;;;;;;6.43;4.60;;;;;;;;;;5095385;28;20055;-76
2021/09/24 03:05:18;;;;;;;5.32;4.57;;;;;;;;;;5095676;28;20036;-77
2021/09/24 03:07:44;;;;;;;5.10;4.35;;;;;;;;;;5095382;28;20081;-76
2021/09/24 03:10:10;;;;;;;6.65;5.30;;;;;;;;;;5095525;28;20031;-74
2021/09/24 03:12:37;;;;;;;6.18;4.70;;;;;;;;;;5095452;28;20024;-75
2021/09/24 03:15:03;;;;;;;10.55;7.00;;;;;;;;;;5096065;28;20466;-75
2021/09/24 03:17:29;;;;;;;15.48;7.88;;;;;;;;;;5095630;28;20020;-75
2021/09/24 03:19:55;;;;;;;12.30;7.22;;;;;;;;;;5095086;28;20031;-76
2021/09/24 03:22:21;;;;;;;12.93;8.07;;;;;;;;;;5095032;28;20024;-75
2021/09/24 03:24:47;;;;;;;11.20;8.13;;;;;;;;;;5094535;28;20032;-75
2021/09/24 03:27:14;;;;;;;10.48;8.15;;;;;;;;;;5095427;28;20024;-75
2021/09/24 03:29:40;;;;;;;17.92;8.32;;;;;;;;;;5095571;28;20023;-75
2021/09/24 03:32:06;;;;;;;11.43;7.32;;;;;;;;;;5094632;28;20024;-75
2021/09/24 03:34:32;;;;;;;9.82;7.40;;;;;;;;;;5094645;28;20023;-75
2021/09/24 03:36:58;;;;;;;15.73;8.35;;;;;;;;;;5094947;28;20020;-75
2021/09/24 03:39:24;;;;;;;13.73;7.40;;;;;;;;;;5095031;28;20028;-75
2021/09/24 03:41:54;;;;;;;10.48;7.60;;;;;;;;;;5094984;28;20477;-75
2021/09/24 03:44:20;;;;;;;12.20;7.88;;;;;;;;;;5094677;28;20040;-75
2021/09/24 03:46:46;;;;;;;9.65;6.78;;;;;;;;;;5094903;28;20458;-75
2021/09/24 03:49:12;;;;;;;11.75;7.22;;;;;;;;;;5094835;28;20020;-75
2021/09/24 03:51:38;;;;;;;14.15;6.30;;;;;;;;;;5094828;28;20024;-75
2021/09/24 03:54:04;;;;;;;7.95;6.45;;;;;;;;;;5094689;28;20036;-82
2021/09/24 03:56:30;;;;;;;10.02;6.47;;;;;;;;;;5094542;28;20028;-75
2021/09/24 03:58:56;;;;;;;15.75;8.05;;;;;;;;;;5095097;28;20028;-75
2021/09/24 04:01:22;;;;;;;12.55;7.90;;;;;;;;;;5094485;28;20469;-75
2021/09/24 04:03:48;;;;;;;8.43;5.82;;;;;;;;;;5094666;28;20184;-77
2021/09/24 04:06:14;;;;;;;10.75;6.93;;;;;;;;;;5094070;28;20032;-75
2021/09/24 04:08:40;;;;;;;9.23;6.30;;;;;;;;;;5093763;28;20027;-75
2021/09/24 04:11:06;;;;;;;7.95;5.50;;;;;;;;;;5094645;28;20024;-75
2021/09/24 04:13:33;;;;;;;8.57;5.47;;;;;;;;;;5094293;28;20031;-75
2021/09/24 04:15:59;;;;;;;9.27;6.05;;;;;;;;;;5094819;28;20024;-75
2021/09/24 04:18:25;;;;;;;11.23;7.20;;;;;;;;;;5093944;28;20363;-77
2021/09/24 04:20:51;;;;;;;8.65;5.50;;;;;;;;;;5094129;28;20454;-75
2021/09/24 04:23:17;;;;;;;10.77;6.43;;;;;;;;;;5094544;28;20093;-75
2021/09/24 04:25:43;;;;;;;8.80;5.75;;;;;;;;;;5094701;28;20365;-75
2021/09/24 04:28:09;;;;;;;10.93;6.15;;;;;;;;;;5094102;28;20021;-76
2021/09/24 04:30:35;;;;;;;9.40;6.00;;;;;;;;;;5094064;28;20355;-75
2021/09/24 04:33:01;;;;;;;6.50;5.55;;;;;;;;;;5094362;28;20024;-79
2021/09/24 04:35:27;;;;;;;8.63;5.60;;;;;;;;;;5094306;28;20028;-77
2021/09/24 04:37:54;;;;;;;6.97;5.82;;;;;;;;;;5092903;28;20477;-76
2021/09/24 04:40:20;;;;;;;6.97;4.82;;;;;;;;;;5093879;28;20024;-76
2021/09/24 04:42:46;;;;;;;7.55;4.90;;;;;;;;;;5093816;28;20035;-75
2021/09/24 04:45:12;;;;;;;8.00;6.55;;;;;;;;;;5094146;28;20485;-76
2021/09/24 04:47:38;;;;;;;7.10;5.32;;;;;;;;;;5093628;28;20046;-75
2021/09/24 04:50:05;;;;;;;9.23;5.88;;;;;;;;;;5093859;28;20028;-79
2021/09/24 04:52:31;;;;;;;6.10;5.50;;;;;;;;;;5093928;28;20024;-75
2021/09/24 04:54:57;;;;;;;7.40;5.47;;;;;;;;;;5093916;28;20024;-77
2021/09/24 04:57:23;;;;;;;6.55;4.65;;;;;;;;;;5093704;28;20074;-76
2021/09/24 04:59:49;;;;;;;7.40;5.30;;;;;;;;;;5093754;28;20028;-76
2021/09/24 05:02:15;;;;;;;9.10;4.30;;;;;;;;;;5093528;28;20060;-77
2021/09/24 05:04:43;;;;;;;7.13;5.07;;;;;;;;;;5092801;28;20121;-77
2021/09/24 05:07:09;;;;;;;4.70;4.25;;;;;;;;;;5094051;28;20031;-76
2021/09/24 05:09:35;;;;;;;7.72;4.82;;;;;;;;;;5093971;28;20107;-75
2021/09/24 05:12:01;;;;;;;8.13;4.88;;;;;;;;;;5093673;28;20043;-76
2021/09/24 05:14:27;;;;;;;5.32;4.13;;;;;;;;;;5093107;28;20020;-75
2021/09/24 05:16:53;;;;;;;6.90;4.43;;;;;;;;;;5093770;28;20024;-75
2021/09/24 05:19:19;;;;;;;8.38;4.90;;;;;;;;;;5094508;28;20024;-77
2021/09/24 05:21:45;;;;;;;8.95;5.38;;;;;;;;;;5096907;28;20115;-74
2021/09/24 05:24:11;;;;;;;7.80;4.60;;;;;;;;;;5096663;28;20583;-76
2021/09/24 05:26:38;;;;;;;29.42;5.35;;;;;;;;;;5096922;28;20478;-75
2021/09/24 05:29:04;;;;;;;23.08;4.47;;;;;;;;;;5097231;28;20111;-75
2021/09/24 05:31:30;;;;;;;12.40;5.50;;;;;;;;;;5097546;28;20116;-76
2021/09/24 05:33:56;;;;;;;12.48;4.38;;;;;;;;;;5096672;28;20080;-77
2021/09/24 05:36:22;;;;;;;12.52;4.72;;;;;;;;;;5096292;28;20385;-75
2021/09/24 05:38:48;;;;;;;11.40;4.55;;;;;;;;;;5097447;28;20016;-77
2021/09/24 05:41:14;;;;;;;11.85;4.95;;;;;;;;;;5097749;28;20028;-77
2021/09/24 05:43:40;;;;;;;7.25;4.60;;;;;;;;;;5095689;28;20050;-77
2021/09/24 05:46:06;;;;;;;8.73;4.97;;;;;;;;;;5096204;28;20124;-76
2021/09/24 05:48:32;;;;;;;6.47;4.63;;;;;;;;;;5096740;28;20024;-77
2021/09/24 05:50:58;;;;;;;4.72;3.53;;;;;;;;;;5097542;28;20055;-75
2021/09/24 05:53:25;;;;;;;6.75;4.47;;;;;;;;;;5096975;28;20020;-75
2021/09/24 05:55:51;;;;;;;4.93;4.40;;;;;;;;;;5097206;28;20024;-75
2021/09/24 05:58:17;;;;;;;6.90;3.50;;;;;;;;;;5096960;28;20047;-75
2021/09/24 06:00:43;;;;;;;4.10;3.47;;;;;;;;;;5096862;28;20028;-76
2021/09/24 06:03:09;;;;;;;6.32;3.40;;;;;;;;;;5096441;28;20056;-76
2021/09/24 06:05:35;;;;;;;5.53;4.00;;;;;;;;;;5096792;28;20042;-75
2021/09/24 06:08:01;;;;;;;4.57;3.05;;;;;;;;;;5096552;28;20024;-75
2021/09/24 06:10:27;;;;;;;4.28;3.47;;;;;;;;;;5096599;28;20077;-75
2021/09/24 06:12:53;;;;;;;8.70;3.63;;;;;;;;;;5096554;28;20036;-75
2021/09/24 06:15:20;;;;;;;4.95;2.83;;;;;;;;;;5096482;28;20031;-76
2021/09/24 06:17:47;;;;;;;4.70;3.30;;;;;;;;;;5096021;28;20028;-76
2021/09/24 06:20:13;;;;;;;3.45;2.65;;;;;;;;;;5096181;28;20031;-75
2021/09/24 06:22:40;;;;;;;7.28;2.35;;;;;;;;;;5096493;28;20111;-75
2021/09/24 06:25:06;;;;;;;4.47;2.55;;;;;;;;;;5096397;28;20028;-75
2021/09/24 06:27:33;;;;;;;7.10;2.97;;;;;;;;;;5096438;28;20066;-75
2021/09/24 06:29:59;;;;;;;5.40;2.95;;;;;;;;;;5096102;28;20020;-75
2021/09/24 06:32:25;;;;;;;6.05;2.50;;;;;;;;;;5095358;28;20028;-75
2021/09/24 06:34:51;;;;;;;4.43;2.42;;;;;;;;;;5096654;28;20024;-75
2021/09/24 06:37:17;;;;;;;3.35;2.33;;;;;;;;;;5095710;28;20042;-75
2021/09/24 06:39:43;;;;;;;5.55;2.63;;;;;;;;;;5095337;28;20020;-75
2021/09/24 06:42:10;;;;;;;7.10;2.67;;;;;;;;;;5095710;28;20035;-76
2021/09/24 06:44:36;;;;;;;6.22;2.85;;;;;;;;;;5095917;28;20040;-76
2021/09/24 06:47:02;;;;;;;3.50;2.92;;;;;;;;;;5095968;28;20104;-77
2021/09/24 06:49:28;;;;;;;5.82;3.33;;;;;;;;;;5095939;28;20024;-76
2021/09/24 06:51:55;;;;;;;2.60;2.03;;;;;;;;;;5096029;28;20101;-76
2021/09/24 06:54:21;;;;;;;8.57;2.47;;;;;;;;;;5095545;28;20024;-75
2021/09/24 06:56:47;;;;;;;4.97;2.92;;;;;;;;;;5095392;28;20048;-76
2021/09/24 06:59:13;;;;;;;3.20;2.17;;;;;;;;;;5095924;28;20042;-76
2021/09/24 07:01:41;;;;;;;5.07;2.83;;;;;;;;;;5095279;28;20024;-76
2021/09/24 07:04:07;;;;;;;7.07;2.72;;;;;;;;;;5095336;28;20040;-76
2021/09/24 07:06:33;;;;;;;3.35;2.40;;;;;;;;;;5095948;28;20465;-75
2021/09/24 07:08:59;;;;;;;3.83;2.65;;;;;;;;;;5095971;28;20024;-75
2021/09/24 07:11:27;;;;;;;4.50;2.92;;;;;;;;;;5095397;28;20469;-75
2021/09/24 07:13:53;;;;;;;5.28;3.20;;;;;;;;;;5095241;28;20036;-75
2021/09/24 07:16:19;;;;;;;4.63;2.90;;;;;;;;;;5095118;28;20028;-75
2021/09/24 07:18:45;;;;;;;5.85;2.78;;;;;;;;;;5095355;28;20020;-75
2021/09/24 07:21:11;;;;;;;7.68;2.80;;;;;;;;;;5095562;28;20104;-75
2021/09/24 07:23:37;;;;;;;10.38;3.10;;;;;;;;;;5095203;28;20020;-75
2021/09/24 07:26:03;;;;;;;4.43;2.70;;;;;;;;;;5095304;28;20449;-76
2021/09/24 07:28:29;;;;;;;5.72;3.13;;;;;;;;;;5095011;28;20026;-75
2021/09/24 07:30:56;;;;;;;6.53;2.90;;;;;;;;;;5094730;28;20043;-76
2021/09/24 07:33:22;;;;;;;7.43;3.88;;;;;;;;;;5095104;28;20024;-76
2021/09/24 07:35:48;;;;;;;6.78;5.93;;;;;;;;;;5095197;28;20427;-75
2021/09/24 07:38:16;;;;;;;10.45;7.15;;;;;;;;;;5094642;28;20050;-75
2021/09/24 07:40:42;;;;;;;8.18;5.28;;;;;;;;;;5095058;28;20023;-75
2021/09/24 07:43:09;;;;;;;4.57;4.18;;;;;;;;;;5094638;28;20107;-75
2021/09/24 07:45:35;;;;;;;7.03;4.15;;;;;;;;;;5094894;28;20028;-76
2021/09/24 07:48:01;;;;;;;6.25;4.25;;;;;;;;;;5094779;28;20497;-75
2021/09/24 07:50:27;;;;;;;8.23;4.30;;;;;;;;;;5094225;28;20355;-75
2021/09/24 07:52:55;;;;;;;5.50;4.13;;;;;;;;;;5094624;28;20057;-75
2021/09/24 07:55:21;;;;;;;7.80;5.10;;;;;;;;;;5094779;28;20488;-76
2021/09/24 07:57:51;;;;;;;8.40;3.88;;;;;;;;;;5094975;28;20048;-75
2021/09/24 08:00:17;;;;;;;5.20;4.10;;;;;;;;;;5093949;28;20362;-75
2021/09/24 08:02:43;;;;;;;6.15;3.95;;;;;;;;;;5095289;28;20032;-78
2021/09/24 08:05:10;;;;;;;7.28;4.93;;;;;;;;;;5094602;28;20035;-75
2021/09/24 08:07:36;;;;;;;6.10;4.88;;;;;;;;;;5094736;28;20035;-75
2021/09/24 08:10:03;;;;;;;7.45;4.55;;;;;;;;;;5094611;28;20362;-76
2021/09/24 08:12:29;;;;;;;8.35;4.78;;;;;;;;;;5094227;28;20118;-75
2021/09/24 08:14:55;;;;;;;8.73;5.57;;;;;;;;;;5093942;28;20024;-76
2021/09/24 08:17:21;;;;;;;11.13;6.15;;;;;;;;;;5094462;28;20065;-77
2021/09/24 08:19:47;;;;;;;7.55;5.18;;;;;;;;;;5094451;28;20030;-73
2021/09/24 08:22:13;;;;;;;7.93;6.18;;;;;;;;;;5094265;28;20050;-75
2021/09/24 08:24:39;;;;;;;8.85;6.85;;;;;;;;;;5094115;28;20478;-74
2021/09/24 08:27:05;;;;;;;15.75;6.30;;;;;;;;;;5094087;28;20024;-74
2021/09/24 08:29:32;;;;;;;6.95;5.50;;;;;;;;;;5093930;28;20111;-74
2021/09/24 08:31:59;;;;;;;15.90;6.10;;;;;;;;;;5094355;28;20020;-74
2021/09/24 08:34:25;;;;;;;14.40;8.05;;;;;;;;;;5094078;28;20025;-75
2021/09/24 08:36:51;;;;;;;11.32;5.47;;;;;;;;;;5094137;28;20357;-74
2021/09/24 08:39:17;;;;;;;8.23;5.22;;;;;;;;;;5094221;28;20024;-74
2021/09/24 08:41:43;;;;;;;15.18;5.47;;;;;;;;;;5094035;28;20024;-75
2021/09/24 08:44:09;;;;;;;7.43;4.50;;;;;;;;;;5093581;28;20059;-75
2021/09/24 08:46:35;;;;;;;8.25;4.22;;;;;;;;;;5094246;28;20024;-74
2021/09/24 08:49:03;;;;;;;4.85;3.25;;;;;;;;;;5094107;28;20020;-74
2021/09/24 08:51:29;;;;;;;5.28;3.33;;;;;;;;;;5094133;28;20095;-75
2021/09/24 08:53:55;;;;;;;5.90;3.75;;;;;;;;;;5094982;28;20028;-76
2021/09/24 08:56:21;;;;;;;6.20;4.25;;;;;;;;;;5097707;28;20127;-76
2021/09/24 08:58:49;;;;;;;5.35;3.88;;;;;;;;;;5097610;28;20024;-75
2021/09/24 09:01:15;;;;;;;6.75;4.05;;;;;;;;;;5098485;28;20020;-75
2021/09/24 09:03:42;;;;;;;6.28;4.43;;;;;;;;;;5098239;28;20032;-75
2021/09/24 09:06:08;;;;;;;5.80;3.85;;;;;;;;;;5097873;28;20028;-75
2021/09/24 09:08:34;;;;;;;7.20;3.55;;;;;;;;;;5097721;28;20529;-74
2021/09/24 09:11:02;;;;;;;5.57;3.40;;;;;;;;;;5097711;28;20020;-76
2021/09/24 09:13:29;;;;;;;5.28;3.38;;;;;;;;;;5097459;28;20032;-76
2021/09/24 09:15:57;;;;;;;6.00;3.17;;;;;;;;;;5097761;28;20024;-75
2021/09/24 09:18:23;;;;;;;8.13;3.97;;;;;;;;;;5097361;28;20101;-75
2021/09/24 09:20:49;;;;;;;3.53;2.80;;;;;;;;;;5097963;28;20109;-75
2021/09/24 09:23:16;;;;;;;5.38;3.33;;;;;;;;;;5097493;28;20034;-77
2021/09/24 09:25:42;;;;;;;5.82;3.63;;;;;;;;;;5097478;28;20064;-77
2021/09/24 09:28:10;;;;;;;8.52;3.30;;;;;;;;;;5095400;28;20109;-78
2021/09/24 09:30:37;;;;;;;6.88;3.72;;;;;;;;;;5101407;28;20412;-76
2021/09/24 09:33:08;;;;;;;5.28;3.15;;;;;;;;;;5099603;28;20027;-75
2021/09/24 09:35:36;;;;;;;12.35;3.97;;;;;;;;;;5099900;28;20031;-75
2021/09/24 09:38:02;;;;;;;8.68;2.92;;;;;;;;;;5100431;28;20024;-77
2021/09/24 09:40:28;;;;;;;9.15;3.17;;;;;;;;;;5100074;28;20031;-76
2021/09/24 09:42:55;;;;;;;6.22;3.05;;;;;;;;;;5099653;28;20039;-75
2021/09/24 09:45:23;;;;;;;12.52;3.28;;;;;;;;;;5099956;28;20047;-73
2021/09/24 09:47:49;;;;;;;9.43;3.60;;;;;;;;;;5098556;28;20031;-76
2021/09/24 09:50:17;;;;;;;11.18;4.13;;;;;;;;;;5099363;28;20039;-75
2021/09/24 09:53:00;;;;;;;7.30;3.42;;;;;;;;;;5098785;28;20020;-75
2021/09/24 09:55:27;;;;;;;11.13;4.38;;;;;;;;;;5098757;28;20484;-75
2021/09/24 09:57:53;;;;;;;6.72;4.22;;;;;;;;;;5098984;28;20082;-75
2021/09/24 10:00:20;;;;;;;6.72;3.63;;;;;;;;;;5099260;28;20389;-75
2021/09/24 10:02:49;;;;;;;8.63;4.00;;;;;;;;;;5098798;28;20016;-75
2021/09/24 10:05:34;;;;;;;6.95;4.25;;;;;;;;;;5098746;28;20050;-74
2021/09/24 10:08:02;;;;;;;10.57;2.97;;;;;;;;;;5098338;28;20027;-75
2021/09/24 10:10:28;;;;;;;6.50;3.45;;;;;;;;;;5098917;28;20024;-75
2021/09/24 10:12:56;;;;;;;6.82;3.92;;;;;;;;;;5099056;28;20031;-74
2021/09/24 10:15:22;;;;;;;6.45;3.35;;;;;;;;;;5098845;28;20032;-74
2021/09/24 10:17:48;;;;;;;9.52;3.83;;;;;;;;;;5098357;28;20052;-75
2021/09/24 10:20:14;;;;;;;9.07;4.68;;;;;;;;;;5098239;28;20073;-76
2021/09/24 10:22:40;;;;;;;7.72;4.50;;;;;;;;;;5099305;28;20094;-75
2021/09/24 10:25:07;;;;;;;8.23;3.83;;;;;;;;;;5099932;28;20057;-77
2021/09/24 10:27:35;;;;;;;9.25;4.22;;;;;;;;;;5098818;28;20104;-75
2021/09/24 10:30:06;;;;;;;8.20;4.15;;;;;;;;;;5099243;28;20053;-76
2021/09/24 10:32:32;;;;;;;8.57;2.80;;;;;;;;;;5097706;28;20107;-73
2021/09/24 10:35:00;;;;;;;7.32;4.07;;;;;;;;;;5097981;28;20499;-75
2021/09/24 10:37:26;;;;;;;7.38;3.35;;;;;;;;;;5098827;28;20020;-73
2021/09/24 10:39:58;;;;;;;5.55;3.35;;;;;;;;;;5098041;28;20160;-75
2021/09/24 10:42:27;;;;;;;5.63;3.17;;;;;;;;;;5098324;28;20392;-77
2021/09/24 10:45:13;;;;;;;8.77;4.05;;;;;;;;;;5097975;28;20036;-77
2021/09/24 10:47:59;;;;;;;10.25;3.75;;;;;;;;;;5097305;28;20024;-77
2021/09/24 10:50:45;;;;;;;3.80;3.00;;;;;;;;;;5097242;28;20036;-77
2021/09/24 10:53:17;;;;;;;5.70;2.75;;;;;;;;;;5098416;28;20046;-78
2021/09/24 10:55:43;;;;;;;;;;;;;;;;;;5098498;28;20027;-79
2021/09/24 10:58:15;;;;;;;8.50;3.17;;;;;;;;;;5098162;28;19923;-77
2021/09/24 11:00:46;;;;;;;4.55;3.63;;;;;;;;;;5098743;28;20024;-76
2021/09/24 11:03:14;;;;;;;6.30;2.85;;;;;;;;;;5097662;28;20028;-76
2021/09/24 11:06:02;;;;;;;4.53;2.55;;;;;;;;;;5098075;28;20119;-76
2021/09/24 11:08:48;;;;;;;2.60;2.03;;;;;;;;;;5097191;28;20477;-77
2021/09/24 11:11:21;;;;;;;2.95;1.77;;;;;;;;;;5097052;28;20119;-75
2021/09/24 11:13:49;;;;;;;5.65;2.58;;;;;;;;;;5097704;28;20385;-74
2021/09/24 11:16:17;;;;;;;5.30;2.70;;;;;;;;;;5085209;28;20040;-78
2021/09/24 11:18:48;;;;;;;3.80;2.67;;;;;;;;;;5065366;28;20028;-77
2021/09/24 11:21:15;;;;;;;5.55;2.67;;;;;;;;;;5066003;28;20028;-74
2021/09/24 11:23:41;;;;;;;4.38;2.47;;;;;;;;;;5063970;28;20043;-75
2021/09/24 11:26:09;;;;;;;9.73;2.95;;;;;;;;;;5063706;28;20073;-77
2021/09/24 11:28:35;;;;;;;3.58;2.05;;;;;;;;;;5064658;28;20798;-79
2021/09/24 11:31:01;;;;;;;3.28;2.03;;;;;;;;;;5065431;28;21445;-78
2021/09/24 11:33:47;;;;;;;4.65;2.70;;;;;;;;;;5064330;28;20028;-77
2021/09/24 11:36:13;;;;;;;7.32;2.58;;;;;;;;;;5073213;28;20028;-75
2021/09/24 11:38:39;;;;;;;6.65;2.85;;;;;;;;;;5093972;28;20110;-77
2021/09/24 11:41:05;;;;;;;8.35;3.63;;;;;;;;;;5093828;28;20027;-76
2021/09/24 11:43:32;;;;;;;5.32;2.83;;;;;;;;;;5092633;28;20024;-77
2021/09/24 11:45:59;;;;;;;3.63;2.35;;;;;;;;;;5093371;28;20501;-75
2021/09/24 11:48:27;;;;;;;7.20;2.92;;;;;;;;;;5094553;28;20016;-75
2021/09/24 11:50:53;;;;;;;6.22;2.47;;;;;;;;;;5094555;28;20373;-77
2021/09/24 11:53:19;;;;;;;8.63;3.58;;;;;;;;;;5095167;28;20032;-76
2021/09/24 11:55:46;;;;;;;5.18;2.70;;;;;;;;;;5093895;28;20021;-76
2021/09/24 11:58:13;;;;;;;7.10;2.95;;;;;;;;;;5094395;28;20067;-77
2021/09/24 12:00:44;;;;;;;7.82;2.97;;;;;;;;;;5093040;28;20046;-76
2021/09/24 12:03:15;;;;;;;3.47;2.00;;;;;;;;;;5094855;28;20074;-75
2021/09/24 12:05:48;;;;;;;6.32;2.88;;;;;;;;;;5094939;28;20035;-74
2021/09/24 12:08:16;;;;;;;6.35;3.08;;;;;;;;;;5094327;28;20028;-75
2021/09/24 12:10:42;;;;;;;4.07;2.38;;;;;;;;;;5094478;28;20070;-75
2021/09/24 12:13:11;;;;;;;5.10;2.63;;;;;;;;;;5094173;28;20181;-75
2021/09/24 12:15:53;;;;;;;4.20;2.08;;;;;;;;;;5094611;28;20059;-75
2021/09/24 12:18:20;;;;;;;4.95;3.60;;;;;;;;;;5094243;28;20032;-75
2021/09/24 12:20:46;;;;;;;4.65;2.55;;;;;;;;;;5094477;28;20057;-75
2021/09/24 12:23:12;;;;;;;8.25;5.32;;;;;;;;;;5094136;28;20027;-74
2021/09/24 12:25:38;;;;;;;6.50;2.42;;;;;;;;;;5094180;28;20133;-75
2021/09/24 12:28:12;;;;;;;4.97;2.85;;;;;;;;;;5093851;28;20107;-77
2021/09/24 12:30:41;;;;;;;5.38;2.55;;;;;;;;;;5094199;28;20092;-75
2021/09/24 12:33:14;;;;;;;4.22;2.35;;;;;;;;;;5094150;28;20500;-75
2021/09/24 12:35:41;;;;;;;4.68;2.60;;;;;;;;;;5094566;28;20145;-75
2021/09/24 12:38:23;;;;;;;9.52;2.65;;;;;;;;;;5093443;28;20054;-76
2021/09/24 12:41:04;;;;;;;4.07;2.53;;;;;;;;;;5094187;28;20024;-75
2021/09/24 12:43:32;;;;;;;5.82;2.67;;;;;;;;;;5094183;28;20053;-75
2021/09/24 12:45:58;;;;;;;6.00;2.67;;;;;;;;;;5094312;28;20504;-75
2021/09/24 12:48:25;;;;;;;6.90;3.15;;;;;;;;;;5093741;28;20028;-77
2021/09/24 12:50:51;;;;;;;5.53;2.22;;;;;;;;;;5094192;28;20029;-76
2021/09/24 12:53:19;;;;;;;3.10;2.20;;;;;;;;;;5093850;28;20028;-76
2021/09/24 12:55:46;;;;;;;3.30;2.13;;;;;;;;;;5093865;28;20500;-76
2021/09/24 12:58:12;;;;;;;3.88;2.17;;;;;;;;;;5093562;28;20453;-75
2021/09/24 13:00:42;;;;;;;5.80;2.33;;;;;;;;;;5094202;28;20024;-75
2021/09/24 13:03:08;;;;;;;4.78;2.25;;;;;;;;;;5094139;28;20032;-75
2021/09/24 13:05:34;;;;;;;4.63;2.63;;;;;;;;;;5093832;28;20059;-75
2021/09/24 13:08:00;;;;;;;3.55;2.90;;;;;;;;;;5093596;28;20405;-75
2021/09/24 13:10:27;;;;;;;6.28;2.63;;;;;;;;;;5093659;28;20426;-75
2021/09/24 13:12:53;;;;;;;11.82;2.35;;;;;;;;;;5094155;28;20024;-74
2021/09/24 13:15:21;;;;;;;5.47;2.67;;;;;;;;;;5094217;28;20073;-75
2021/09/24 13:17:47;;;;;;;7.03;2.20;;;;;;;;;;5093701;28;20024;-75
2021/09/24 13:20:13;;;;;;;4.28;2.05;;;;;;;;;;5093711;28;20035;-76
2021/09/24 13:22:40;;;;;;;3.75;2.30;;;;;;;;;;5093655;28;20388;-75
2021/09/24 13:25:07;;;;;;;4.50;2.38;;;;;;;;;;5093958;28;20020;-76
2021/09/24 13:27:33;;;;;;;5.10;2.95;;;;;;;;;;5093362;28;20020;-73
2021/09/24 13:29:59;;;;;;;7.85;2.35;;;;;;;;;;5093705;28;20027;-76
2021/09/24 13:32:26;;;;;;;7.95;2.17;;;;;;;;;;5093090;28;20024;-78
2021/09/24 13:34:52;;;;;;;4.05;2.08;;;;;;;;;;5093713;28;20078;-75
2021/09/24 13:37:18;;;;;;;4.38;2.00;;;;;;;;;;5094172;28;20028;-73
2021/09/24 13:39:44;;;;;;;4.25;1.77;;;;;;;;;;5094175;28;20036;-73
2021/09/24 13:42:10;;;;;;;12.35;3.00;;;;;;;;;;5097073;28;20028;-73
2021/09/24 13:44:36;;;;;;;5.63;2.42;;;;;;;;;;5097206;28;20090;-73
2021/09/24 13:47:02;;;;;;;6.85;2.00;;;;;;;;;;5096895;28;20024;-73
2021/09/24 13:49:28;;;;;;;8.80;2.90;;;;;;;;;;5096677;28;20063;-74
2021/09/24 13:51:54;;;;;;;4.63;2.13;;;;;;;;;;5097038;28;20053;-75
2021/09/24 13:54:21;;;;;;;4.30;2.20;;;;;;;;;;5096662;28;20020;-75
2021/09/24 13:56:47;;;;;;;5.38;2.60;;;;;;;;;;5096866;28;20044;-75
2021/09/24 13:59:13;;;;;;;4.05;2.00;;;;;;;;;;5097221;28;20016;-75
2021/09/24 14:01:39;;;;;;;3.10;2.05;;;;;;;;;;5096713;28;20032;-77
2021/09/24 14:04:05;;;;;;;7.93;2.10;;;;;;;;;;5096074;28;20047;-76
2021/09/24 14:06:31;;;;;;;3.75;2.50;;;;;;;;;;5096839;28;20035;-75
2021/09/24 14:08:57;;;;;;;3.10;2.25;;;;;;;;;;5096648;28;20020;-75
2021/09/24 14:11:23;;;;;;;3.47;2.08;;;;;;;;;;5097047;28;20031;-75
2021/09/24 14:13:49;;;;;;;6.28;2.30;;;;;;;;;;5096563;28;20059;-75
2021/09/24 14:16:16;;;;;;;4.93;2.42;;;;;;;;;;5096526;28;20028;-77
2021/09/24 14:18:42;;;;;;;5.93;2.85;;;;;;;;;;5096375;28;20421;-75
2021/09/24 14:21:08;;;;;;;4.75;2.70;;;;;;;;;;5096400;28;20381;-75
2021/09/24 14:23:37;;;;;;;6.75;2.72;;;;;;;;;;5094126;28;20054;-73
2021/09/24 14:26:03;;;;;;;4.63;3.90;;;;;;;;;;5098948;28;20024;-76
2021/09/24 14:28:29;;;;;;;4.90;2.30;;;;;;;;;;5098539;28;20097;-75
2021/09/24 14:30:55;;;;;;;8.15;3.00;;;;;;;;;;5098848;28;20056;-76
2021/09/24 14:33:21;;;;;;;7.95;3.28;;;;;;;;;;5098905;28;20043;-75
2021/09/24 14:35:48;;;;;;;7.70;2.20;;;;;;;;;;5099348;28;20078;-74
2021/09/24 14:38:14;;;;;;;6.60;3.38;;;;;;;;;;5098356;28;20020;-73